Time;durP1;ratioP1;P1;durP2;ratioP2;P2;SDS_P1;SDS_P2;PMS_P1;PMS_P2;Temp;Humidity;BMP_temperature;BMP_pressure;BME280_temperature;BME280_humidity;BME280_pressure;Samples;Min_cycle;Max_cycle;Signal;HPM_P1;HPM_P2
2023/04/20 00:03:21;;;;;;;7.90;4.03;;;;;;;8.91;43.48;100844.22;10149762;29;20048;-76
2023/04/20 00:08:24;;;;;;;6.32;4.57;;;;;;;8.90;44.24;100835.31;10147292;29;20053;-76
2023/04/20 00:13:27;;;;;;;10.18;4.55;;;;;;;8.71;45.05;100827.66;10150192;29;20122;-76
2023/04/20 00:18:31;;;;;;;;;;;;;;;8.74;45.61;100818.56;10143464;29;20464;-76
2023/04/20 00:23:34;;;;;;;6.35;3.83;;;;;;;8.72;45.93;100818.69;10149549;29;20063;-76
2023/04/20 00:28:37;;;;;;;8.65;4.15;;;;;;;8.55;46.95;100816.22;10147907;29;20112;-76
2023/04/20 00:33:43;;;;;;;6.80;4.32;;;;;;;8.47;47.96;100813.19;10148827;29;20096;-76
2023/04/20 00:38:46;;;;;;;16.40;4.55;;;;;;;8.30;49.79;100811.59;10150403;29;20070;-76
2023/04/20 00:43:50;;;;;;;9.75;5.03;;;;;;;8.24;51.15;100812.84;10150433;29;20665;-77
2023/04/20 00:48:56;;;;;;;6.80;4.40;;;;;;;7.95;52.15;100815.59;10148647;29;20079;-76
2023/04/20 00:54:00;;;;;;;11.55;5.18;;;;;;;7.95;52.09;100802.22;10145542;29;20044;-76
2023/04/20 00:59:02;;;;;;;11.85;4.78;;;;;;;7.89;52.40;100794.53;10146038;29;20515;-76
2023/04/20 01:04:07;;;;;;;7.32;4.63;;;;;;;7.69;53.14;100795.81;10147795;29;20051;-76
2023/04/20 01:09:11;;;;;;;11.57;4.97;;;;;;;7.63;53.85;100790.84;10150096;29;20571;-76
2023/04/20 01:14:14;;;;;;;9.10;5.05;;;;;;;7.67;54.59;100780.81;10144681;29;20036;-76
2023/04/20 01:19:18;;;;;;;11.05;4.90;;;;;;;7.47;54.93;100785.59;10149171;29;20078;-76
2023/04/20 01:24:22;;;;;;;9.88;5.07;;;;;;;7.45;55.75;100774.13;10149513;29;20041;-77
2023/04/20 01:29:26;;;;;;;7.57;4.38;;;;;;;7.52;55.19;100768.41;10141438;29;20461;-75
2023/04/20 01:34:29;;;;;;;6.82;4.53;;;;;;;7.49;55.56;100762.31;10148731;29;20082;-76
2023/04/20 01:39:33;;;;;;;7.43;4.15;;;;;;;7.43;55.65;100757.34;10145641;29;20052;-76
2023/04/20 01:44:36;;;;;;;6.25;4.10;;;;;;;7.38;55.90;100747.91;10147523;29;20115;-76
2023/04/20 01:49:39;;;;;;;7.90;4.63;;;;;;;7.37;55.71;100752.34;10143893;29;20416;-77
2023/04/20 01:54:43;;;;;;;7.85;4.32;;;;;;;7.41;55.52;100747.69;10143901;29;20111;-76
2023/04/20 01:59:46;;;;;;;8.40;4.28;;;;;;;7.30;55.72;100739.50;10142626;29;20052;-76
2023/04/20 02:04:49;;;;;;;;;;;;;;;7.01;56.59;100750.13;10141596;29;20531;-77
2023/04/20 02:09:53;;;;;;;6.13;3.85;;;;;;;7.21;56.47;100754.25;10146386;29;19942;-77
2023/04/20 02:14:56;;;;;;;9.45;4.80;;;;;;;7.26;56.08;100745.00;10145060;29;20045;-77
2023/04/20 02:19:59;;;;;;;7.78;4.40;;;;;;;7.22;56.62;100734.59;10147799;29;20132;-76
2023/04/20 02:25:04;;;;;;;9.93;4.72;;;;;;;7.15;56.98;100736.78;10141023;29;20049;-74
2023/04/20 02:30:09;;;;;;;9.35;4.38;;;;;;;7.25;56.57;100724.59;10147330;29;20052;-77
2023/04/20 02:35:12;;;;;;;9.80;4.88;;;;;;;7.06;56.92;100718.66;10141711;29;20048;-77
2023/04/20 02:40:18;;;;;;;9.68;4.93;;;;;;;7.18;56.87;100717.03;10143047;29;20036;-76
2023/04/20 02:45:21;;;;;;;8.20;4.90;;;;;;;7.06;57.06;100719.50;10153429;29;20179;-77
2023/04/20 02:50:24;;;;;;;8.15;5.32;;;;;;;7.04;57.32;100718.72;10152518;29;20055;-77
2023/04/20 02:55:38;;;;;;;;;;;;;;;6.97;57.46;100712.06;10142945;29;20067;-77
2023/04/20 03:00:59;;;;;;;7.53;5.28;;;;;;;7.00;57.43;100708.34;10141846;29;19923;-76
2023/04/20 03:06:02;;;;;;;8.07;4.70;;;;;;;7.07;57.48;100709.66;10143919;29;20052;-77
2023/04/20 03:11:06;;;;;;;7.90;4.70;;;;;;;7.02;57.57;100696.63;10171782;23;20139;-79
2023/04/20 03:16:10;;;;;;;9.82;4.95;;;;;;;7.00;57.72;100693.19;10169456;29;20499;-80
2023/04/20 03:21:20;;;;;;;7.43;5.13;;;;;;;7.08;57.80;100686.50;10142868;29;20096;-80
2023/04/20 03:26:24;;;;;;;6.43;4.50;;;;;;;6.91;57.99;100693.75;10154796;29;20059;-79
2023/04/20 03:31:40;;;;;;;7.32;5.25;;;;;;;6.90;58.67;100683.16;10144386;29;20041;-79
2023/04/20 03:36:45;;;;;;;9.00;5.68;;;;;;;6.94;58.75;100673.97;10143498;29;20048;-78
2023/04/20 03:41:50;;;;;;;9.80;4.57;;;;;;;6.95;59.23;100675.72;10144610;29;20519;-79
2023/04/20 03:46:52;;;;;;;5.95;4.82;;;;;;;6.87;59.57;100672.63;10143397;29;20051;-78
2023/04/20 03:51:55;;;;;;;10.43;4.80;;;;;;;6.79;59.97;100681.09;10141681;29;20492;-79
2023/04/20 03:57:01;;;;;;;7.53;4.88;;;;;;;6.84;60.08;100689.69;10141445;29;20045;-79
2023/04/20 04:02:04;;;;;;;9.02;4.82;;;;;;;6.74;60.27;100693.84;10160216;29;20199;-79
2023/04/20 04:07:07;;;;;;;5.47;4.60;;;;;;;6.81;60.18;100693.41;10143829;29;20124;-79
2023/04/20 04:12:14;;;;;;;7.80;4.75;;;;;;;6.76;60.66;100694.63;10142277;29;20096;-79
2023/04/20 04:17:17;;;;;;;10.82;5.53;;;;;;;6.62;61.43;100696.31;10142283;29;20523;-79
2023/04/20 04:22:20;;;;;;;8.52;5.75;;;;;;;6.70;61.03;100701.19;10140346;29;20137;-79
2023/04/20 04:27:45;;;;;;;8.57;5.78;;;;;;;6.57;61.88;100700.22;10141788;29;20520;-78
2023/04/20 04:32:49;;;;;;;8.85;6.00;;;;;;;6.57;62.29;100705.53;10137155;29;20047;-79
2023/04/20 04:37:53;;;;;;;10.10;6.50;;;;;;;6.61;62.13;100701.75;10139985;29;20068;-79
2023/04/20 04:42:59;;;;;;;11.13;6.78;;;;;;;6.57;62.83;100706.41;10140776;29;20048;-79
2023/04/20 04:48:02;;;;;;;10.60;7.30;;;;;;;6.49;64.13;100697.97;10154277;29;20049;-78
2023/04/20 04:53:05;;;;;;;11.68;7.55;;;;;;;6.35;64.52;100696.13;10139239;29;20053;-79
2023/04/20 04:58:10;;;;;;;16.55;8.38;;;;;;;6.36;64.48;100699.66;10139944;29;20075;-79
2023/04/20 05:03:13;;;;;;;15.07;9.43;;;;;;;6.56;63.85;100706.50;10139692;29;20124;-78
2023/04/20 05:08:16;;;;;;;14.55;8.25;;;;;;;6.68;63.42;100702.25;10139835;29;20041;-79
2023/04/20 05:13:21;;;;;;;16.52;8.55;;;;;;;6.71;62.99;100702.91;10139268;29;20048;-79
2023/04/20 05:18:24;;;;;;;16.08;8.40;;;;;;;6.66;63.29;100707.66;10140265;29;20496;-79
2023/04/20 05:23:27;;;;;;;13.18;8.73;;;;;;;6.76;63.07;100705.31;10139645;29;20067;-79
2023/04/20 05:28:33;;;;;;;15.13;9.15;;;;;;;6.72;62.82;100695.75;10139959;29;20040;-79
2023/04/20 05:33:35;;;;;;;20.55;9.65;;;;;;;6.65;63.19;100699.75;10139654;29;20079;-80
2023/04/20 05:38:39;;;;;;;17.75;8.55;;;;;;;6.60;63.30;100710.69;10140297;29;20136;-79
2023/04/20 05:43:43;;;;;;;12.82;8.85;;;;;;;6.63;63.49;100710.50;10141349;29;20044;-79
2023/04/20 05:48:46;;;;;;;17.27;8.75;;;;;;;6.55;63.73;100707.44;10139307;29;20389;-80
2023/04/20 05:53:48;;;;;;;13.45;9.23;;;;;;;6.63;63.47;100702.50;10139639;29;20548;-78
2023/04/20 05:58:53;;;;;;;13.93;9.45;;;;;;;6.76;63.27;100708.84;10139511;29;20052;-79
2023/04/20 06:03:56;;;;;;;14.52;8.05;;;;;;;6.76;63.26;100716.00;10139287;29;20041;-79
2023/04/20 06:08:59;;;;;;;13.75;10.35;;;;;;;6.56;63.52;100709.19;10137524;29;20051;-79
2023/04/20 06:14:04;;;;;;;17.90;10.73;;;;;;;6.59;63.56;100720.53;10136929;29;20093;-79
2023/04/20 06:19:06;;;;;;;16.83;10.23;;;;;;;6.69;63.80;100717.28;10135495;29;20041;-80
2023/04/20 06:24:09;;;;;;;16.20;10.55;;;;;;;6.73;63.13;100725.03;10134186;29;20100;-79
2023/04/20 06:29:13;;;;;;;14.95;9.88;;;;;;;6.78;63.41;100727.44;10137278;29;20055;-79
2023/04/20 06:34:16;;;;;;;16.40;10.18;;;;;;;6.77;63.36;100718.56;10137879;29;20049;-79
2023/04/20 06:39:19;;;;;;;16.42;10.52;;;;;;;6.56;63.37;100722.53;10137606;29;20096;-79
2023/04/20 06:44:24;;;;;;;16.42;10.00;;;;;;;6.61;63.43;100725.78;10136397;29;20044;-80
2023/04/20 06:49:26;;;;;;;18.02;10.25;;;;;;;6.85;63.42;100716.28;10131093;29;20043;-80
2023/04/20 06:54:29;;;;;;;13.52;9.93;;;;;;;7.06;62.27;100713.31;10136978;29;20076;-79
2023/04/20 06:59:33;;;;;;;15.00;10.88;;;;;;;7.08;61.90;100708.75;10111216;29;20496;-80
2023/04/20 07:04:36;;;;;;;16.00;10.25;;;;;;;7.18;61.63;100709.88;10100871;29;20111;-80
2023/04/20 07:09:39;;;;;;;17.90;9.93;;;;;;;7.36;61.15;100712.38;10062141;29;1108308;-80
2023/04/20 07:14:43;;;;;;;15.85;10.40;;;;;;;7.40;61.29;100705.88;10106085;29;20127;-80
2023/04/20 07:19:46;;;;;;;15.93;9.10;;;;;;;7.67;60.25;100716.63;10102592;29;20068;-80
2023/04/20 07:24:50;;;;;;;18.27;10.48;;;;;;;7.76;60.09;100716.03;10104318;29;21272;-80
2023/04/20 07:29:54;;;;;;;16.50;10.45;;;;;;;7.83;59.33;100701.31;10116814;29;20055;-81
2023/04/20 07:34:57;;;;;;;16.42;10.40;;;;;;;8.27;58.94;100697.56;10130404;29;20073;-79
2023/04/20 07:40:00;;;;;;;16.33;10.50;;;;;;;8.42;58.32;100698.38;10129955;29;20044;-80
2023/04/20 07:45:06;;;;;;;19.73;9.82;;;;;;;8.19;57.67;100691.84;10112567;29;20044;-80
2023/04/20 07:50:09;;;;;;;15.57;10.13;;;;;;;8.15;58.40;100701.06;10110891;29;20054;-79
2023/04/20 07:55:13;;;;;;;15.55;9.93;;;;;;;9.01;56.65;100704.16;10108942;29;20104;-79
2023/04/20 08:00:18;;;;;;;14.70;9.57;;;;;;;9.22;54.84;100704.50;10106433;29;20052;-80
2023/04/20 08:05:23;;;;;;;11.20;8.80;;;;;;;9.05;54.92;100705.69;10109119;29;21193;-80
2023/04/20 08:10:26;;;;;;;13.98;9.60;;;;;;;9.46;54.75;100696.53;10109174;29;20048;-80
2023/04/20 08:15:30;;;;;;;12.70;8.57;;;;;;;9.81;53.22;100701.16;10105637;29;20129;-79
2023/04/20 08:20:33;;;;;;;12.88;9.05;;;;;;;9.24;54.00;100701.69;10100243;29;20516;-80
2023/04/20 08:25:38;;;;;;;11.63;9.05;;;;;;;8.89;55.28;100713.06;10117409;29;20048;-80
2023/04/20 08:30:44;;;;;;;10.70;8.73;;;;;;;9.13;53.08;100706.94;10103737;29;20049;-80
2023/04/20 08:35:47;;;;;;;12.68;8.48;;;;;;;9.28;53.39;100708.56;10105788;29;20620;-80
2023/04/20 08:40:49;;;;;;;10.88;8.27;;;;;;;10.64;50.75;100703.09;10120238;29;20107;-81
2023/04/20 08:45:58;;;;;;;10.02;6.55;;;;;;;10.44;48.43;100701.91;10108767;29;20053;-79
2023/04/20 08:51:02;;;;;;;9.70;7.35;;;;;;;9.92;50.41;100709.31;10104162;29;20401;-80
2023/04/20 08:56:05;;;;;;;8.85;6.72;;;;;;;9.75;50.56;100706.13;10102737;29;20072;-80
2023/04/20 09:01:10;;;;;;;8.85;7.32;;;;;;;9.50;50.67;100713.25;10104200;29;20056;-80
2023/04/20 09:06:18;;;;;;;8.85;7.38;;;;;;;10.41;49.42;100714.72;10105869;29;21181;-81
2023/04/20 09:11:26;;;;;;;8.25;6.70;;;;;;;10.49;49.10;100712.31;10108556;29;20567;-81
2023/04/20 09:16:31;;;;;;;8.02;6.70;;;;;;;10.62;49.09;100721.16;10102969;29;20059;-80
2023/04/20 09:21:34;;;;;;;11.73;6.20;;;;;;;11.11;48.52;100720.06;10103983;29;20103;-80
2023/04/20 09:26:37;;;;;;;7.07;6.35;;;;;;;11.44;46.54;100711.19;10101243;29;20515;-80
2023/04/20 09:31:41;;;;;;;6.80;6.10;;;;;;;11.88;46.38;100711.28;10119463;29;20048;-80
2023/04/20 09:36:49;;;;;;;7.13;6.13;;;;;;;12.24;45.13;100707.41;10104207;29;20056;-80
2023/04/20 09:41:52;;;;;;;7.03;6.32;;;;;;;10.97;46.33;100712.19;10100342;29;20088;-80
2023/04/20 09:46:56;;;;;;;7.13;6.38;;;;;;;10.63;47.61;100714.78;10111346;29;20084;-80
2023/04/20 09:52:02;;;;;;;7.88;6.28;;;;;;;10.87;47.81;100717.44;10099962;29;20131;-81
2023/04/20 09:57:05;;;;;;;6.85;6.15;;;;;;;10.59;47.25;100718.72;10102153;29;20045;-81
2023/04/20 10:02:11;;;;;;;8.30;6.15;;;;;;;10.54;47.16;100716.34;10100763;29;20058;-80
2023/04/20 10:07:23;;;;;;;7.30;5.82;;;;;;;11.13;46.46;100714.59;10102890;29;20064;-80
2023/04/20 10:12:26;;;;;;;7.15;5.95;;;;;;;11.31;46.30;100712.31;10100698;29;20060;-80
2023/04/20 10:17:32;;;;;;;7.43;6.07;;;;;;;10.96;46.29;100722.09;10110351;29;20068;-81
2023/04/20 10:22:35;;;;;;;6.13;5.35;;;;;;;11.40;45.23;100714.25;10134827;29;20067;-81
2023/04/20 10:27:39;;;;;;;6.65;5.90;;;;;;;11.02;45.54;100716.25;10110168;29;20064;-81
2023/04/20 10:32:43;;;;;;;6.18;5.57;;;;;;;11.68;44.71;100707.50;10104787;29;20508;-81
2023/04/20 10:37:50;;;;;;;7.20;6.45;;;;;;;11.64;45.68;100717.66;10118450;29;20052;-81
2023/04/20 10:42:54;;;;;;;10.88;7.10;;;;;;;11.17;45.35;100714.22;10118328;29;20048;-80
2023/04/20 10:47:58;;;;;;;6.40;5.80;;;;;;;11.36;45.66;100702.03;10098799;29;20054;-79
2023/04/20 10:53:01;;;;;;;10.18;6.00;;;;;;;11.61;45.45;100698.25;10100597;29;20055;-79
2023/04/20 10:58:04;;;;;;;6.85;6.15;;;;;;;12.10;43.22;100691.53;10112360;29;20091;-79
2023/04/20 11:03:11;;;;;;;7.78;6.60;;;;;;;11.50;44.90;100697.25;10118668;29;20060;-80
2023/04/20 11:08:14;;;;;;;7.97;6.93;;;;;;;12.40;44.03;100685.47;10098217;29;20199;-80
2023/04/20 11:13:24;;;;;;;7.15;6.50;;;;;;;12.35;43.76;100683.16;10095799;29;20053;-80
2023/04/20 11:18:29;;;;;;;8.77;6.95;;;;;;;12.71;43.52;100685.56;10095483;29;20097;-80
2023/04/20 11:23:38;;;;;;;8.82;6.57;;;;;;;14.54;40.23;100672.88;10093242;29;20060;-80
2023/04/20 11:28:51;;;;;;;9.25;6.45;;;;;;;13.58;41.20;100669.03;10101792;29;20220;-80
2023/04/20 11:33:58;;;;;;;7.75;7.05;;;;;;;12.62;42.92;100686.34;10101883;29;20053;-80
2023/04/20 11:39:08;;;;;;;7.60;6.80;;;;;;;11.80;44.59;100690.38;10105199;29;20119;-81
2023/04/20 11:44:11;;;;;;;8.55;7.63;;;;;;;11.91;44.07;100686.81;10099136;29;20138;-80
2023/04/20 11:49:16;;;;;;;7.90;7.10;;;;;;;11.45;44.87;100690.53;10103263;29;20060;-80
2023/04/20 11:54:20;;;;;;;10.18;8.30;;;;;;;11.13;45.79;100676.94;10105698;29;20060;-80
2023/04/20 11:59:24;;;;;;;8.80;7.90;;;;;;;11.41;45.05;100676.47;10102444;29;20048;-79
2023/04/20 12:04:28;;;;;;;8.70;7.10;;;;;;;11.67;44.85;100668.97;10119178;29;20052;-80
2023/04/20 12:09:34;;;;;;;6.53;5.88;;;;;;;11.87;43.31;100669.19;10103436;29;20053;-81
2023/04/20 12:14:37;;;;;;;6.20;5.40;;;;;;;12.09;42.09;100661.03;10117617;29;20060;-80
2023/04/20 12:19:42;;;;;;;5.63;5.13;;;;;;;13.03;41.12;100653.97;10101789;29;20052;-81
2023/04/20 12:24:44;;;;;;;5.47;4.82;;;;;;;14.22;39.56;100641.56;10094144;29;20068;-81
2023/04/20 12:29:47;;;;;;;7.65;6.20;;;;;;;16.54;37.03;100638.03;10100426;29;20056;-80
2023/04/20 12:34:51;;;;;;;8.40;7.63;;;;;;;15.52;36.90;100651.84;10101084;29;20064;-81
2023/04/20 12:39:54;;;;;;;6.78;6.18;;;;;;;16.52;36.32;100631.91;10091619;29;20504;-81
2023/04/20 12:44:57;;;;;;;8.48;6.60;;;;;;;14.96;37.02;100640.06;10106076;29;20064;-81
2023/04/20 12:50:02;;;;;;;8.07;7.32;;;;;;;15.37;38.17;100646.09;10095184;29;20053;-80
2023/04/20 12:55:06;;;;;;;6.78;5.18;;;;;;;16.55;35.72;100640.59;10096327;29;20072;-81
2023/04/20 13:00:11;;;;;;;6.53;5.93;;;;;;;16.57;35.54;100640.44;10109633;29;20052;-80
2023/04/20 13:05:18;;;;;;;7.57;6.72;;;;;;;15.30;37.28;100651.19;10094147;29;20227;-80
2023/04/20 13:10:21;;;;;;;6.75;6.10;;;;;;;13.68;39.98;100654.53;10094783;29;20049;-80
2023/04/20 13:15:24;;;;;;;7.47;6.70;;;;;;;14.65;39.04;100637.59;10095895;29;20048;-80
2023/04/20 13:20:42;;;;;;;7.88;6.78;;;;;;;15.88;36.68;100631.13;10097310;29;20056;-81
2023/04/20 13:25:44;;;;;;;7.72;7.10;;;;;;;16.90;35.28;100616.25;10111435;29;20172;-81
2023/04/20 13:30:47;;;;;;;7.03;6.43;;;;;;;15.86;35.83;100631.28;10096065;29;20064;-81
2023/04/20 13:35:52;;;;;;;7.30;6.60;;;;;;;15.20;37.86;100637.72;10094960;29;20424;-81
2023/04/20 13:40:54;;;;;;;6.70;6.18;;;;;;;16.15;35.75;100619.34;10094348;29;20092;-82
2023/04/20 13:45:57;;;;;;;8.23;6.30;;;;;;;15.08;37.15;100629.91;10098975;29;20048;-81
2023/04/20 13:51:02;;;;;;;8.35;7.45;;;;;;;14.54;38.15;100619.66;10089998;29;20613;-81
2023/04/20 13:56:05;;;;;;;8.50;7.78;;;;;;;13.90;39.42;100618.38;10108315;29;20633;-80
2023/04/20 14:01:08;;;;;;;6.85;6.25;;;;;;;14.49;38.20;100607.59;10093632;29;20100;-81
2023/04/20 14:06:13;;;;;;;7.22;6.53;;;;;;;14.19;38.72;100605.88;10094191;29;20040;-81
2023/04/20 14:11:15;;;;;;;7.45;6.40;;;;;;;14.74;38.44;100598.00;10094321;29;20053;-81
2023/04/20 14:16:18;;;;;;;9.02;6.57;;;;;;;15.31;37.11;100577.13;10140924;29;20040;-81
2023/04/20 14:21:23;;;;;;;7.57;6.65;;;;;;;16.66;36.36;100559.97;10128319;29;20392;-82
2023/04/20 14:26:26;;;;;;;7.05;6.45;;;;;;;16.66;34.56;100552.69;10105487;29;20116;-82
2023/04/20 14:31:29;;;;;;;7.43;6.72;;;;;;;15.98;35.47;100553.31;10102447;29;21088;-82
2023/04/20 14:36:33;;;;;;;6.63;6.03;;;;;;;14.94;37.46;100553.66;10104175;29;20056;-82
2023/04/20 14:41:36;;;;;;;7.40;6.22;;;;;;;14.52;37.58;100558.66;10096890;29;20049;-82
2023/04/20 14:46:39;;;;;;;7.00;6.38;;;;;;;13.57;39.48;100560.19;10098221;29;20136;-81
2023/04/20 14:51:45;;;;;;;6.35;5.63;;;;;;;12.88;40.65;100560.94;10101407;29;20053;-82
2023/04/20 14:56:48;;;;;;;9.13;6.53;;;;;;;12.92;40.71;100565.09;10094039;29;20048;-81
2023/04/20 15:01:51;;;;;;;7.22;6.53;;;;;;;12.99;40.57;100560.00;10087655;29;20067;-81
2023/04/20 15:07:06;;;;;;;7.28;6.50;;;;;;;12.62;40.77;100557.84;10089865;29;20060;-81
2023/04/20 15:12:16;;;;;;;7.60;6.80;;;;;;;12.33;41.53;100557.66;10110596;29;20060;-82
2023/04/20 15:17:19;;;;;;;10.07;9.00;;;;;;;11.61;43.64;100556.47;10097804;29;20104;-82
2023/04/20 15:22:24;;;;;;;11.25;10.15;;;;;;;11.45;45.43;100554.19;10117395;29;20055;-82
2023/04/20 15:27:27;;;;;;;11.23;9.35;;;;;;;11.11;45.46;100569.50;10100294;29;20087;-82
2023/04/20 15:32:32;;;;;;;11.48;10.38;;;;;;;11.06;44.90;100567.19;10104905;29;20059;-81
2023/04/20 15:37:36;;;;;;;10.85;9.73;;;;;;;10.98;45.42;100552.66;10100933;29;20209;-82
2023/04/20 15:42:39;;;;;;;11.48;10.15;;;;;;;11.05;44.49;100561.91;10102008;29;20116;-81
2023/04/20 15:47:42;;;;;;;8.90;8.00;;;;;;;10.83;44.82;100552.91;10129733;29;20052;-81
2023/04/20 15:52:48;;;;;;;10.07;8.95;;;;;;;10.92;45.37;100547.78;10141102;29;20091;-81
2023/04/20 15:57:55;;;;;;;9.48;8.50;;;;;;;10.98;45.63;100552.66;10131070;29;20060;-82
2023/04/20 16:03:00;;;;;;;10.57;9.30;;;;;;;10.68;45.67;100546.03;10100992;29;20116;-82
2023/04/20 16:08:05;;;;;;;10.98;8.68;;;;;;;10.74;45.98;100536.66;10108498;29;20044;-82
2023/04/20 16:13:08;;;;;;;11.00;9.27;;;;;;;10.69;46.25;100537.00;10101753;29;20516;-82
2023/04/20 16:18:11;;;;;;;9.65;8.65;;;;;;;10.53;46.69;100536.50;10107224;29;20048;-82
2023/04/20 16:23:15;;;;;;;9.15;8.25;;;;;;;10.89;46.86;100529.19;10104667;29;20063;-81
2023/04/20 16:28:18;;;;;;;9.90;8.30;;;;;;;10.83;47.26;100528.72;10123805;29;20100;-82
2023/04/20 16:33:21;;;;;;;10.00;8.52;;;;;;;10.75;47.32;100555.34;10106454;29;20063;-83
2023/04/20 16:38:25;;;;;;;11.77;9.20;;;;;;;10.38;49.54;100552.84;10105807;29;20655;-81
2023/04/20 16:43:28;;;;;;;11.25;8.60;;;;;;;10.17;50.31;100558.06;10113175;29;20051;-82
2023/04/20 16:48:32;;;;;;;13.05;9.80;;;;;;;10.14;50.70;100562.78;10104048;29;20067;-81
2023/04/20 16:53:36;;;;;;;14.48;9.80;;;;;;;10.15;50.69;100557.31;10105690;29;20080;-82
2023/04/20 16:58:39;;;;;;;12.10;8.90;;;;;;;10.26;50.16;100556.50;10107882;29;21333;-81
2023/04/20 17:03:42;;;;;;;10.45;7.88;;;;;;;10.25;49.89;100554.75;10114986;29;20064;-82
2023/04/20 17:08:48;;;;;;;10.63;7.95;;;;;;;10.07;50.23;100564.25;10111759;29;20105;-82
2023/04/20 17:13:51;;;;;;;10.48;8.10;;;;;;;9.97;50.89;100566.75;10107049;29;21202;-82
2023/04/20 17:18:54;;;;;;;14.30;10.82;;;;;;;9.76;51.26;100569.19;10120434;29;20055;-82
2023/04/20 17:23:58;;;;;;;19.17;10.40;;;;;;;9.79;52.15;100558.25;10105035;29;20082;-81
2023/04/20 17:29:01;;;;;;;12.95;9.48;;;;;;;9.54;52.95;100586.00;10101201;29;20644;-82
2023/04/20 17:34:04;;;;;;;14.35;10.13;;;;;;;9.51;53.99;100583.56;10103085;29;20060;-82
2023/04/20 17:39:08;;;;;;;13.90;10.02;;;;;;;9.51;54.48;100599.66;10102806;29;20206;-82
2023/04/20 17:44:11;;;;;;;19.70;11.57;;;;;;;9.18;56.00;100608.31;10114467;29;20044;-83
2023/04/20 17:49:14;;;;;;;16.25;10.38;;;;;;;9.22;56.32;100615.19;10102101;29;20064;-82
2023/04/20 17:54:18;;;;;;;16.63;10.55;;;;;;;9.33;56.27;100615.25;10112892;29;20052;-82
2023/04/20 17:59:22;;;;;;;17.92;10.98;;;;;;;9.12;57.01;100616.81;10112255;29;20079;-82
2023/04/20 18:04:24;;;;;;;15.95;11.68;;;;;;;8.92;57.81;100621.75;10099750;29;20048;-81
2023/04/20 18:09:29;;;;;;;17.73;13.32;;;;;;;9.08;58.05;100626.88;10125944;29;20052;-81
2023/04/20 18:14:32;;;;;;;19.05;13.80;;;;;;;9.11;58.31;100631.19;10151966;29;20097;-81
2023/04/20 18:19:35;;;;;;;23.55;14.27;;;;;;;9.14;58.77;100630.94;10117764;29;20784;-81
2023/04/20 18:24:40;;;;;;;22.25;15.57;;;;;;;9.13;59.21;100631.91;10102454;29;20085;-81
2023/04/20 18:29:42;;;;;;;27.17;16.98;;;;;;;9.04;59.70;100623.53;10100128;29;20084;-81
2023/04/20 18:34:45;;;;;;;28.52;18.95;;;;;;;9.02;60.40;100633.53;10097289;29;20188;-80
2023/04/20 18:39:49;;;;;;;30.92;18.77;;;;;;;9.03;60.47;100621.84;10117158;29;20528;-81
2023/04/20 18:44:52;;;;;;;30.08;18.20;;;;;;;9.01;60.93;100630.94;10102239;29;20492;-81
2023/04/20 18:49:55;;;;;;;30.50;18.45;;;;;;;9.12;61.10;100633.72;10099470;29;20135;-81
2023/04/20 18:54:59;;;;;;;35.33;19.55;;;;;;;9.21;60.87;100630.38;10100338;29;20120;-82
2023/04/20 19:00:06;;;;;;;29.73;18.83;;;;;;;9.13;61.30;100632.75;10122965;29;20095;-82
2023/04/20 19:05:08;;;;;;;30.48;19.00;;;;;;;8.96;61.76;100639.31;10121913;29;20052;-81
2023/04/20 19:10:13;;;;;;;35.38;20.38;;;;;;;9.14;61.81;100620.22;10107575;29;20055;-82
2023/04/20 19:15:16;;;;;;;31.17;20.15;;;;;;;9.24;61.24;100618.59;10108466;29;20100;-82
2023/04/20 19:20:19;;;;;;;34.83;21.50;;;;;;;9.24;61.45;100621.25;10107895;29;22019;-82
2023/04/20 19:25:23;;;;;;;35.13;22.05;;;;;;;9.08;61.98;100618.84;10109627;29;20056;-82
2023/04/20 19:30:26;;;;;;;35.55;21.23;;;;;;;9.26;61.40;100622.03;10106292;29;20062;-81
2023/04/20 19:35:28;;;;;;;36.20;21.05;;;;;;;9.18;61.82;100614.53;10112167;29;20480;-81
2023/04/20 19:40:33;;;;;;;36.13;23.17;;;;;;;9.13;62.27;100618.50;10108387;29;20084;-82
2023/04/20 19:45:36;;;;;;;37.42;21.83;;;;;;;9.17;61.92;100604.78;10110617;29;20076;-82
2023/04/20 19:50:38;;;;;;;38.67;22.45;;;;;;;9.23;61.91;100601.66;10111897;29;20059;-82
2023/04/20 19:55:43;;;;;;;34.85;22.23;;;;;;;9.13;62.35;100599.75;10104735;29;20192;-81
2023/04/20 20:00:46;;;;;;;36.90;22.20;;;;;;;9.24;62.16;100600.72;10103898;29;20143;-81
2023/04/20 20:05:49;;;;;;;35.22;22.92;;;;;;;9.27;62.11;100603.16;10106358;29;20064;-81
2023/04/20 20:10:53;;;;;;;34.65;21.88;;;;;;;9.25;62.32;100602.41;10102006;29;20091;-81
2023/04/20 20:15:57;;;;;;;39.28;23.85;;;;;;;9.35;61.96;100591.88;10106441;29;20057;-81
2023/04/20 20:21:00;;;;;;;36.88;22.02;;;;;;;9.37;62.11;100592.63;10124358;29;20049;-82
2023/04/20 20:26:05;;;;;;;35.08;21.42;;;;;;;9.26;62.31;100579.13;10112145;29;21159;-82
2023/04/20 20:31:08;;;;;;;33.00;22.10;;;;;;;9.11;62.95;100588.28;10106117;29;20062;-81
2023/04/20 20:36:11;;;;;;;35.63;23.73;;;;;;;9.04;63.47;100590.53;10111272;29;20508;-82
2023/04/20 20:41:15;;;;;;;40.20;24.88;;;;;;;9.09;63.55;100595.59;10114741;29;20052;-81
2023/04/20 20:46:18;;;;;;;35.58;23.67;;;;;;;9.02;64.04;100595.16;10116993;29;20048;-82
2023/04/20 20:51:21;;;;;;;38.13;25.10;;;;;;;9.01;64.11;100577.38;10099163;29;20725;-81
2023/04/20 20:56:25;;;;;;;34.25;23.20;;;;;;;8.98;64.57;100573.06;10104966;29;20080;-81
2023/04/20 21:01:28;;;;;;;36.95;23.65;;;;;;;9.05;64.63;100562.75;10106145;29;22727;-82
2023/04/20 21:06:32;;;;;;;37.40;24.73;;;;;;;9.07;64.88;100555.47;10110454;29;20056;-81
2023/04/20 21:11:36;;;;;;;38.72;24.23;;;;;;;9.07;64.95;100555.47;10211892;23;20116;-80
2023/04/20 21:16:39;;;;;;;41.05;24.48;;;;;;;9.14;64.95;100551.41;10160611;29;20136;-80
2023/04/20 21:21:42;;;;;;;37.60;24.13;;;;;;;9.18;65.06;100541.31;10165418;29;20041;-80
2023/04/20 21:26:47;;;;;;;39.28;25.40;;;;;;;9.10;65.22;100544.53;10151981;29;20040;-81
2023/04/20 21:31:50;;;;;;;42.47;27.08;;;;;;;9.19;65.50;100537.69;10202608;29;20088;-73
2023/04/20 21:36:53;;;;;;;39.92;25.60;;;;;;;9.24;65.40;100538.16;10171639;29;20040;-80
2023/04/20 21:41:58;;;;;;;37.35;25.75;;;;;;;9.26;65.62;100536.25;10150167;29;20104;-79
2023/04/20 21:47:02;;;;;;;40.95;25.67;;;;;;;9.32;65.51;100530.41;10160969;29;20079;-81
2023/04/20 21:52:05;;;;;;;39.80;27.25;;;;;;;9.27;65.90;100532.63;10155492;29;20492;-80
2023/04/20 21:57:09;;;;;;;40.97;25.83;;;;;;;9.29;66.01;100531.50;10158937;29;20052;-81
2023/04/20 22:02:12;;;;;;;42.30;27.77;;;;;;;9.38;66.08;100526.44;10161017;29;20052;-76
2023/04/20 22:07:16;;;;;;;44.63;28.67;;;;;;;9.33;66.29;100517.91;10158985;29;20059;-79
2023/04/20 22:12:20;;;;;;;42.15;28.80;;;;;;;9.29;66.54;100511.88;10153739;29;20496;-76
2023/04/20 22:17:38;;;;;;;42.40;27.23;;;;;;;9.23;67.04;100515.03;10173332;29;20051;-79
2023/04/20 22:22:41;;;;;;;42.03;27.95;;;;;;;9.14;67.25;100505.00;10152651;29;20050;-79
2023/04/20 22:27:45;;;;;;;44.42;26.13;;;;;;;9.18;67.34;100514.50;10165407;29;20044;-81
2023/04/20 22:32:48;;;;;;;44.03;27.40;;;;;;;9.25;67.49;100500.53;10164059;29;20051;-77
2023/04/20 22:37:51;;;;;;;44.03;26.98;;;;;;;9.23;67.63;100494.44;10163313;29;20416;-78
2023/04/20 22:42:55;;;;;;;44.35;26.67;;;;;;;9.24;67.80;100481.88;10162845;29;20044;-78
2023/04/20 22:47:58;;;;;;;39.30;25.63;;;;;;;9.27;67.76;100482.53;10149430;29;20041;-79
2023/04/20 22:53:01;;;;;;;38.90;25.80;;;;;;;9.15;67.90;100467.34;10158178;29;20496;-80
2023/04/20 22:58:05;;;;;;;38.15;25.15;;;;;;;9.06;68.56;100470.72;10160236;29;20049;-79
2023/04/20 23:03:08;;;;;;;41.35;25.60;;;;;;;9.05;69.05;100458.25;10148250;29;20480;-78
2023/04/20 23:08:12;;;;;;;37.80;26.10;;;;;;;8.99;69.51;100450.69;10153710;29;20048;-81
2023/04/20 23:13:17;;;;;;;37.92;24.95;;;;;;;8.96;70.32;100450.91;10152110;29;20059;-77
2023/04/20 23:18:19;;;;;;;38.30;25.00;;;;;;;8.89;70.70;100450.50;10175222;29;20637;-77